Time;durP1;ratioP1;P1;durP2;ratioP2;P2;SDS_P1;SDS_P2;PMS_P1;PMS_P2;Temp;Humidity;BMP_temperature;BMP_pressure;BME280_temperature;BME280_humidity;BME280_pressure;Samples;Min_cycle;Max_cycle;Signal;HPM_P1;HPM_P2
2023/08/17 00:00:25;;;;;;;8.90;7.85;;;22.30;99.90;;;;;;4850593;29;20085;-39
2023/08/17 00:02:52;;;;;;;10.07;7.93;;;22.30;99.90;;;;;;4848896;29;20276;-40
2023/08/17 00:05:19;;;;;;;9.02;7.47;;;22.30;99.90;;;;;;4857088;29;20045;-42
2023/08/17 00:07:47;;;;;;;11.68;7.80;;;22.30;99.90;;;;;;4848771;29;20054;-41
2023/08/17 00:10:14;;;;;;;8.82;7.68;;;22.30;99.90;;;;;;4846805;29;20106;-43
2023/08/17 00:12:42;;;;;;;8.23;7.38;;;22.40;99.90;;;;;;4854650;29;20049;-43
2023/08/17 00:15:09;;;;;;;9.02;7.53;;;22.40;99.90;;;;;;4853112;29;20081;-43
2023/08/17 00:17:37;;;;;;;10.23;8.57;;;22.40;99.90;;;;;;4836320;29;20152;-42
2023/08/17 00:20:05;;;;;;;9.10;7.20;;;22.40;99.90;;;;;;4854228;29;20504;-42
2023/08/17 00:22:32;;;;;;;10.00;7.82;;;22.40;99.90;;;;;;4851393;29;20130;-43
2023/08/17 00:25:00;;;;;;;9.02;7.65;;;22.40;99.90;;;;;;4854680;29;20668;-41
2023/08/17 00:27:27;;;;;;;9.68;7.88;;;22.40;99.90;;;;;;4850489;29;20079;-42
2023/08/17 00:29:54;;;;;;;9.45;7.55;;;22.40;99.90;;;;;;4838330;29;20073;-43
2023/08/17 00:32:25;;;;;;;9.25;7.70;;;22.30;99.90;;;;;;4839089;29;20076;-41
2023/08/17 00:34:53;;;;;;;10.73;8.10;;;22.40;99.90;;;;;;4847106;29;20058;-41
2023/08/17 00:37:20;;;;;;;10.73;7.60;;;22.40;99.90;;;;;;4851979;29;20058;-41
2023/08/17 00:39:52;;;;;;;11.65;7.68;;;22.30;99.90;;;;;;4855896;29;20053;-42
2023/08/17 00:42:19;;;;;;;9.38;7.40;;;22.30;99.90;;;;;;4851871;29;20049;-42
2023/08/17 00:44:47;;;;;;;10.15;7.60;;;22.30;99.90;;;;;;4856556;29;20073;-41
2023/08/17 00:47:14;;;;;;;10.10;7.78;;;22.20;99.90;;;;;;4862463;29;20060;-42
2023/08/17 00:49:42;;;;;;;9.05;7.43;;;22.20;99.90;;;;;;4863123;29;20166;-43
2023/08/17 00:52:10;;;;;;;8.75;7.38;;;22.20;99.90;;;;;;4854131;29;20149;-42
2023/08/17 00:54:37;;;;;;;12.55;7.72;;;22.20;99.90;;;;;;4839222;29;20145;-41
2023/08/17 00:57:06;;;;;;;10.02;8.18;;;22.20;99.90;;;;;;4853860;29;20049;-42
2023/08/17 00:59:34;;;;;;;10.05;8.07;;;22.10;99.90;;;;;;4854438;29;20049;-40
2023/08/17 01:02:04;;;;;;;9.27;7.70;;;22.00;99.90;;;;;;4853986;29;20060;-42
2023/08/17 01:04:32;;;;;;;13.27;8.15;;;22.00;99.90;;;;;;4828348;29;20065;-42
2023/08/17 01:06:59;;;;;;;10.75;8.38;;;22.00;99.90;;;;;;4851122;29;20051;-41
2023/08/17 01:09:27;;;;;;;10.73;7.57;;;21.80;99.90;;;;;;4857438;29;20053;-42
2023/08/17 01:12:19;;;;;;;14.10;8.57;;;21.80;99.90;;;;;;4852947;29;20089;-42
2023/08/17 01:14:59;;;;;;;11.32;8.32;;;21.80;99.90;;;;;;4821859;29;20121;-41
2023/08/17 01:17:56;;;;;;;10.38;7.95;;;21.80;99.90;;;;;;4835580;29;20168;-42
2023/08/17 01:20:24;;;;;;;10.38;9.18;;;21.70;99.90;;;;;;4850251;29;20081;-41
2023/08/17 01:22:57;;;;;;;9.77;8.05;;;21.60;99.90;;;;;;4849039;29;20053;-39
2023/08/17 01:25:24;;;;;;;12.10;8.52;;;21.60;99.90;;;;;;4841027;29;20046;-41
2023/08/17 01:27:52;;;;;;;14.98;8.45;;;21.60;99.90;;;;;;4845325;29;20087;-41
2023/08/17 01:30:19;;;;;;;9.80;8.13;;;21.60;99.90;;;;;;4856488;29;20180;-41
2023/08/17 01:32:54;;;;;;;12.43;8.55;;;21.60;99.90;;;;;;4839734;29;20057;-42
2023/08/17 01:35:35;;;;;;;15.43;8.43;;;21.60;99.90;;;;;;4855809;29;20049;-41
2023/08/17 01:38:09;;;;;;;9.65;8.10;;;21.60;99.90;;;;;;4852568;29;20042;-43
2023/08/17 01:40:37;;;;;;;10.02;8.70;;;21.60;99.90;;;;;;4846908;29;20145;-40
2023/08/17 01:43:05;;;;;;;9.90;8.90;;;21.60;99.90;;;;;;4846208;29;20046;-42
2023/08/17 01:45:33;;;;;;;9.82;8.45;;;21.60;99.90;;;;;;4855583;29;20101;-42
2023/08/17 01:48:01;;;;;;;11.15;8.35;;;21.60;99.90;;;;;;4850202;29;20059;-43
2023/08/17 01:50:30;;;;;;;11.68;8.43;;;21.60;99.90;;;;;;4830557;29;20148;-43
2023/08/17 01:52:57;;;;;;;11.07;8.55;;;21.60;99.90;;;;;;4848266;29;20061;-45
2023/08/17 01:55:26;;;;;;;10.75;8.20;;;21.60;99.90;;;;;;4853112;29;20534;-41
2023/08/17 01:57:54;;;;;;;11.60;8.52;;;21.60;99.90;;;;;;4848436;29;20049;-43
2023/08/17 02:00:22;;;;;;;12.30;8.30;;;21.70;99.90;;;;;;4849623;29;20332;-41
2023/08/17 02:02:49;;;;;;;8.77;7.88;;;21.70;99.90;;;;;;4849350;29;20072;-42
2023/08/17 02:05:16;;;;;;;11.52;8.57;;;21.70;99.90;;;;;;4833508;29;20129;-42
2023/08/17 02:07:45;;;;;;;13.90;8.30;;;21.70;99.90;;;;;;4837915;29;20460;-43
2023/08/17 02:10:13;;;;;;;11.55;8.40;;;21.70;99.90;;;;;;4835111;29;20046;-41
2023/08/17 02:12:41;;;;;;;10.65;8.23;;;21.70;99.90;;;;;;4853274;29;20193;-41
2023/08/17 02:15:09;;;;;;;10.77;8.05;;;21.80;99.90;;;;;;4844770;29;20057;-44
2023/08/17 02:17:36;;;;;;;10.73;8.00;;;21.70;99.90;;;;;;4840673;29;20236;-40
2023/08/17 02:20:04;;;;;;;12.95;8.60;;;21.70;99.90;;;;;;4848182;29;20129;-43
2023/08/17 02:22:31;;;;;;;9.85;8.35;;;21.80;99.90;;;;;;4855728;29;20041;-42
2023/08/17 02:24:59;;;;;;;14.23;9.13;;;21.70;99.90;;;;;;4832185;29;20056;-44
2023/08/17 02:27:26;;;;;;;9.85;8.25;;;21.70;99.90;;;;;;4855473;29;20062;-43
2023/08/17 02:29:54;;;;;;;11.50;8.82;;;21.70;99.90;;;;;;4848794;29;20053;-39
2023/08/17 02:32:21;;;;;;;11.57;8.27;;;21.70;99.90;;;;;;4851379;29;20081;-42
2023/08/17 02:34:48;;;;;;;12.23;8.38;;;21.70;99.90;;;;;;4851639;29;20464;-40
2023/08/17 02:37:15;;;;;;;10.75;8.20;;;21.70;99.90;;;;;;4852986;29;20080;-42
2023/08/17 02:39:43;;;;;;;10.23;8.20;;;21.70;99.90;;;;;;4849223;29;20065;-44
2023/08/17 02:42:10;;;;;;;9.50;8.00;;;21.70;99.90;;;;;;4851249;29;20050;-42
2023/08/17 02:44:38;;;;;;;9.73;8.52;;;21.70;99.90;;;;;;4850513;29;20077;-44
2023/08/17 02:47:05;;;;;;;13.10;9.35;;;21.70;99.90;;;;;;4852967;29;20050;-38
2023/08/17 02:49:33;;;;;;;10.75;8.20;;;21.70;99.90;;;;;;4845932;29;20057;-41
2023/08/17 02:52:00;;;;;;;15.73;9.10;;;21.70;99.90;;;;;;4849771;29;20148;-44
2023/08/17 02:54:27;;;;;;;9.00;7.85;;;21.70;99.90;;;;;;4850753;29;20144;-41
2023/08/17 02:56:55;;;;;;;11.20;8.27;;;21.60;99.90;;;;;;4848602;29;20057;-45
2023/08/17 02:59:22;;;;;;;10.70;8.45;;;21.60;99.90;;;;;;4854047;29;20045;-40
2023/08/17 03:01:49;;;;;;;14.70;9.35;;;21.60;99.90;;;;;;4855801;29;20061;-41
2023/08/17 03:04:17;;;;;;;10.52;8.93;;;21.60;99.90;;;;;;4855177;29;20048;-41
2023/08/17 03:06:44;;;;;;;12.60;8.98;;;21.60;99.90;;;;;;4854889;29;20132;-42
2023/08/17 03:09:11;;;;;;;11.43;9.10;;;21.60;99.90;;;;;;4849201;29;20105;-43
2023/08/17 03:11:39;;;;;;;13.20;8.48;;;21.50;99.90;;;;;;4837704;29;20418;-40
2023/08/17 03:14:06;;;;;;;14.20;8.32;;;21.50;99.90;;;;;;4851992;29;20073;-41
2023/08/17 03:16:33;;;;;;;10.73;8.52;;;21.60;99.90;;;;;;4837654;29;20084;-43
2023/08/17 03:19:01;;;;;;;10.93;8.80;;;21.60;99.90;;;;;;4832646;29;20518;-42
2023/08/17 03:21:28;;;;;;;9.73;8.73;;;21.60;99.90;;;;;;4837296;29;20053;-43
2023/08/17 03:23:56;;;;;;;10.32;9.20;;;21.60;99.90;;;;;;4852527;29;20049;-39
2023/08/17 03:26:23;;;;;;;11.20;8.52;;;21.60;99.90;;;;;;4837953;29;20064;-42
2023/08/17 03:28:51;;;;;;;9.65;7.70;;;21.60;99.90;;;;;;4849153;29;20085;-41
2023/08/17 03:31:21;;;;;;;9.40;8.15;;;21.50;99.90;;;;;;4835117;29;20096;-44
2023/08/17 03:33:48;;;;;;;11.35;8.77;;;21.50;99.90;;;;;;4832553;29;20117;-40
2023/08/17 03:36:17;;;;;;;10.38;7.65;;;21.50;99.90;;;;;;4837936;29;20045;-44
2023/08/17 03:38:44;;;;;;;10.65;8.73;;;21.50;99.90;;;;;;4839674;29;20424;-41
2023/08/17 03:41:11;;;;;;;12.93;8.57;;;21.50;99.90;;;;;;4853598;29;20049;-41
2023/08/17 03:43:39;;;;;;;12.02;8.23;;;21.60;99.90;;;;;;4853268;29;20120;-41
2023/08/17 03:46:07;;;;;;;11.02;8.48;;;21.50;99.90;;;;;;4847874;29;20074;-43
2023/08/17 03:48:34;;;;;;;10.45;8.35;;;21.50;99.90;;;;;;4855027;29;20041;-41
2023/08/17 03:51:02;;;;;;;10.20;8.40;;;21.50;99.90;;;;;;4850127;29;20081;-40
2023/08/17 03:53:29;;;;;;;15.82;8.45;;;21.50;99.90;;;;;;4854336;29;20129;-41
2023/08/17 03:55:58;;;;;;;9.75;8.05;;;21.40;99.90;;;;;;4859700;29;20061;-40
2023/08/17 03:58:26;;;;;;;10.00;8.90;;;21.40;99.90;;;;;;4865483;29;20061;-42
2023/08/17 04:00:54;;;;;;;10.98;8.52;;;21.40;99.90;;;;;;4835808;29;20088;-42
2023/08/17 04:03:27;;;;;;;12.40;9.95;;;21.30;99.90;;;;;;4853443;29;20073;-44
2023/08/17 04:05:55;;;;;;;16.48;13.48;;;21.30;99.90;;;;;;4854466;29;20654;-42
2023/08/17 04:08:22;;;;;;;17.30;13.48;;;21.20;99.90;;;;;;4849404;29;20049;-41
2023/08/17 04:10:49;;;;;;;11.98;10.02;;;21.20;99.90;;;;;;4833570;29;20050;-43
2023/08/17 04:13:17;;;;;;;11.52;9.02;;;21.10;99.90;;;;;;4843217;29;20041;-45
2023/08/17 04:15:44;;;;;;;9.45;8.45;;;21.00;99.90;;;;;;4858142;29;20092;-42
2023/08/17 04:18:11;;;;;;;12.82;9.25;;;21.00;99.90;;;;;;4825910;29;20061;-43
2023/08/17 04:20:39;;;;;;;11.55;9.20;;;21.00;99.90;;;;;;4841054;29;20068;-44
2023/08/17 04:23:06;;;;;;;12.15;10.00;;;20.90;99.90;;;;;;4851746;29;20077;-41
2023/08/17 04:25:33;;;;;;;11.63;9.30;;;20.90;99.90;;;;;;4855427;29;20080;-42
2023/08/17 04:28:01;;;;;;;12.52;9.43;;;20.80;99.90;;;;;;4853835;29;20520;-42
2023/08/17 04:30:28;;;;;;;12.20;9.57;;;20.80;99.90;;;;;;4850824;29;20395;-43
2023/08/17 04:32:59;;;;;;;12.43;9.85;;;20.80;99.90;;;;;;4836441;29;20106;-41
2023/08/17 04:35:27;;;;;;;10.68;9.10;;;20.80;99.90;;;;;;4842212;29;20088;-41
2023/08/17 04:37:55;;;;;;;12.27;9.48;;;20.80;99.90;;;;;;4838806;29;20049;-41
2023/08/17 04:40:22;;;;;;;10.80;9.70;;;20.80;99.90;;;;;;4839189;29;20506;-42
2023/08/17 04:42:50;;;;;;;15.13;8.73;;;20.90;99.90;;;;;;4843076;29;20054;-42
2023/08/17 04:45:17;;;;;;;13.88;8.65;;;20.80;99.90;;;;;;4830995;24;20045;-43
2023/08/17 04:47:47;;;;;;;11.27;9.05;;;20.90;99.90;;;;;;4832477;29;20053;-43
2023/08/17 04:50:16;;;;;;;13.93;9.27;;;20.90;99.90;;;;;;4829167;29;20528;-44
2023/08/17 04:52:44;;;;;;;13.82;11.18;;;21.00;99.90;;;;;;4823754;29;20134;-44
2023/08/17 04:55:13;;;;;;;18.85;12.70;;;21.00;99.90;;;;;;4821214;29;20064;-43
2023/08/17 04:57:42;;;;;;;16.77;11.73;;;21.00;99.90;;;;;;4821560;29;20053;-41
2023/08/17 05:00:13;;;;;;;17.10;10.48;;;21.00;99.90;;;;;;4812688;29;20070;-45
2023/08/17 05:02:42;;;;;;;12.38;8.93;;;21.00;99.90;;;;;;4819114;29;20446;-45
2023/08/17 05:05:10;;;;;;;12.85;9.82;;;21.00;99.90;;;;;;4832986;29;20132;-44
2023/08/17 05:07:37;;;;;;;10.60;8.85;;;21.00;99.90;;;;;;4817442;29;20473;-43
2023/08/17 05:10:05;;;;;;;12.80;9.00;;;21.00;99.90;;;;;;4835849;29;20050;-43
2023/08/17 05:12:36;;;;;;;12.75;9.98;;;21.00;99.90;;;;;;4821412;29;20110;-45
2023/08/17 05:15:04;;;;;;;13.98;9.85;;;21.10;99.90;;;;;;4815215;29;20068;-47
2023/08/17 05:17:31;;;;;;;10.23;8.48;;;21.10;99.90;;;;;;4832235;29;20053;-46
2023/08/17 05:19:59;;;;;;;12.23;9.05;;;21.20;99.90;;;;;;4822474;29;20045;-46
2023/08/17 05:22:27;;;;;;;11.52;8.45;;;21.30;99.90;;;;;;4834660;29;20068;-45
2023/08/17 05:24:54;;;;;;;11.57;9.70;;;21.30;99.90;;;;;;4838305;29;20058;-46
2023/08/17 05:27:22;;;;;;;12.20;9.35;;;21.40;99.90;;;;;;4820388;29;20065;-47
2023/08/17 05:29:50;;;;;;;11.27;8.93;;;21.40;99.90;;;;;;4820887;29;20118;-45
2023/08/17 05:32:18;;;;;;;11.25;9.73;;;21.50;99.90;;;;;;4814674;29;20248;-46
2023/08/17 05:34:47;;;;;;;12.05;9.50;;;21.50;99.90;;;;;;4818827;29;20054;-45
2023/08/17 05:37:15;;;;;;;11.95;8.68;;;21.60;99.90;;;;;;4833952;29;20131;-46
2023/08/17 05:39:42;;;;;;;11.95;8.60;;;21.70;99.90;;;;;;4819058;29;20408;-44
2023/08/17 05:42:10;;;;;;;13.82;10.38;;;21.80;99.90;;;;;;4831883;29;20135;-44
2023/08/17 05:44:37;;;;;;;11.93;9.85;;;21.80;99.90;;;;;;4833406;29;20053;-42
2023/08/17 05:47:04;;;;;;;11.32;9.15;;;21.80;99.90;;;;;;4837183;29;20057;-49
2023/08/17 05:49:32;;;;;;;14.23;10.00;;;21.90;99.90;;;;;;4812787;29;20050;-44
2023/08/17 05:51:59;;;;;;;11.65;9.55;;;22.00;99.90;;;;;;4836575;29;20070;-46
2023/08/17 05:54:27;;;;;;;10.55;9.10;;;22.10;99.90;;;;;;4832661;29;20447;-44
2023/08/17 05:56:54;;;;;;;13.02;9.48;;;22.10;99.90;;;;;;4838207;29;20117;-47
2023/08/17 05:59:21;;;;;;;12.35;9.18;;;22.20;99.90;;;;;;4835997;29;20133;-47
2023/08/17 06:01:48;;;;;;;16.48;9.90;;;22.20;99.90;;;;;;4833571;29;20045;-44
2023/08/17 06:04:16;;;;;;;13.60;10.35;;;22.30;99.90;;;;;;4833558;29;20099;-49
2023/08/17 06:06:43;;;;;;;11.13;9.05;;;22.40;99.90;;;;;;4831995;29;20491;-42
2023/08/17 06:09:10;;;;;;;11.93;10.25;;;22.40;99.90;;;;;;4832829;29;20125;-44
2023/08/17 06:11:38;;;;;;;13.20;9.13;;;22.50;99.90;;;;;;4836028;29;20137;-43
2023/08/17 06:14:06;;;;;;;13.82;9.05;;;22.50;99.90;;;;;;4836697;29;20435;-45
2023/08/17 06:16:33;;;;;;;11.85;8.77;;;22.60;99.90;;;;;;4837757;29;20065;-45
2023/08/17 06:19:00;;;;;;;10.82;9.02;;;22.70;99.90;;;;;;4833552;29;20524;-49
2023/08/17 06:21:28;;;;;;;10.32;8.85;;;22.70;99.90;;;;;;4835901;29;20054;-40
2023/08/17 06:23:55;;;;;;;11.60;9.73;;;22.80;99.90;;;;;;4831668;29;20125;-47
2023/08/17 06:26:22;;;;;;;9.57;8.60;;;22.90;99.90;;;;;;4835542;29;20042;-42
2023/08/17 06:28:50;;;;;;;12.25;8.60;;;22.90;99.90;;;;;;4832556;29;20056;-43
2023/08/17 06:31:17;;;;;;;13.88;9.63;;;22.90;99.90;;;;;;4837055;29;20158;-44
2023/08/17 06:33:45;;;;;;;10.80;8.95;;;23.00;99.90;;;;;;4832853;29;20046;-43
2023/08/17 06:36:16;;;;;;;15.65;9.15;;;23.10;99.90;;;;;;4837493;29;20153;-43
2023/08/17 06:38:43;;;;;;;10.90;9.80;;;23.20;99.90;;;;;;4832680;29;20057;-41
2023/08/17 06:41:11;;;;;;;10.40;9.27;;;23.30;99.90;;;;;;4834545;29;20755;-41
2023/08/17 06:43:38;;;;;;;10.05;8.85;;;23.30;99.90;;;;;;4835622;29;20156;-46
2023/08/17 06:46:05;;;;;;;11.25;10.00;;;23.40;99.90;;;;;;4835642;29;20500;-43
2023/08/17 06:48:33;;;;;;;11.90;10.07;;;23.50;99.90;;;;;;4833450;29;20136;-43
2023/08/17 06:51:00;;;;;;;14.07;10.43;;;23.70;99.90;;;;;;4834500;29;20416;-42
2023/08/17 06:53:27;;;;;;;12.35;9.40;;;23.80;99.90;;;;;;4837918;29;20214;-46
2023/08/17 06:55:54;;;;;;;10.52;9.05;;;23.90;99.90;;;;;;4836818;29;20503;-44
2023/08/17 06:58:22;;;;;;;14.70;9.75;;;23.90;99.90;;;;;;4834335;29;20050;-44
2023/08/17 07:00:49;;;;;;;12.90;9.60;;;23.90;99.90;;;;;;4835365;29;20141;-45
2023/08/17 07:03:16;;;;;;;10.65;9.30;;;24.00;99.90;;;;;;4836268;29;20042;-46
2023/08/17 07:05:44;;;;;;;14.50;9.02;;;24.10;99.90;;;;;;4835822;29;20045;-43
2023/08/17 07:08:11;;;;;;;10.40;8.70;;;24.20;99.90;;;;;;4833785;29;20131;-46
2023/08/17 07:10:38;;;;;;;10.55;8.55;;;24.20;99.90;;;;;;4835660;29;20497;-47
2023/08/17 07:13:06;;;;;;;11.55;9.48;;;24.30;99.90;;;;;;4834981;29;20081;-43
2023/08/17 07:15:33;;;;;;;12.75;8.50;;;24.40;99.90;;;;;;4834764;29;20101;-44
2023/08/17 07:18:01;;;;;;;11.40;8.77;;;24.50;99.90;;;;;;4835981;29;20113;-47
2023/08/17 07:20:28;;;;;;;10.55;8.68;;;24.60;99.90;;;;;;4839791;29;20060;-43
2023/08/17 07:22:56;;;;;;;10.50;9.27;;;24.70;99.90;;;;;;4839046;29;20073;-43
2023/08/17 07:25:24;;;;;;;14.52;10.05;;;24.80;99.90;;;;;;4838668;29;20132;-47
2023/08/17 07:27:51;;;;;;;11.23;9.25;;;24.80;99.90;;;;;;4829252;29;20104;-49
2023/08/17 07:30:18;;;;;;;10.40;8.95;;;24.80;99.90;;;;;;4832713;29;20497;-45
2023/08/17 07:32:46;;;;;;;12.82;9.02;;;24.90;99.90;;;;;;4833976;29;20065;-43
2023/08/17 07:35:13;;;;;;;9.70;8.13;;;25.00;99.90;;;;;;4839489;29;20045;-42
2023/08/17 07:37:41;;;;;;;14.13;9.80;;;25.10;99.90;;;;;;4837141;29;20050;-43
2023/08/17 07:40:09;;;;;;;10.15;9.15;;;25.10;99.90;;;;;;4834081;29;20050;-44
2023/08/17 07:42:37;;;;;;;11.57;9.07;;;25.10;99.90;;;;;;4839559;29;20400;-46
2023/08/17 07:45:06;;;;;;;12.70;10.13;;;25.20;99.90;;;;;;4838914;29;20042;-44
2023/08/17 07:47:37;;;;;;;13.57;9.15;;;25.30;99.90;;;;;;4835351;29;20474;-44
2023/08/17 07:50:05;;;;;;;13.93;10.88;;;25.40;99.90;;;;;;4840491;29;20042;-47
2023/08/17 07:52:33;;;;;;;12.38;10.45;;;25.50;99.90;;;;;;4832433;29;20049;-46
2023/08/17 07:55:00;;;;;;;13.48;9.45;;;25.60;99.90;;;;;;4831403;29;20510;-45
2023/08/17 07:57:30;;;;;;;11.38;9.75;;;25.70;99.90;;;;;;4831012;29;20542;-41
2023/08/17 07:59:58;;;;;;;11.88;8.68;;;25.80;99.90;;;;;;4838826;29;20289;-44
2023/08/17 08:02:25;;;;;;;12.88;10.98;;;26.00;99.90;;;;;;4835069;29;20065;-43
2023/08/17 08:04:52;;;;;;;13.07;10.15;;;26.00;99.90;;;;;;4837106;29;20133;-43
2023/08/17 08:07:20;;;;;;;14.07;12.27;;;26.10;99.90;;;;;;4835593;29;20465;-43
2023/08/17 08:09:47;;;;;;;13.30;10.50;;;26.20;99.90;;;;;;4839059;29;20078;-43
2023/08/17 08:12:15;;;;;;;11.82;10.63;;;26.30;99.90;;;;;;4836306;29;20110;-45
2023/08/17 08:14:42;;;;;;;10.73;9.68;;;26.40;99.90;;;;;;4838433;29;20042;-42
2023/08/17 08:17:09;;;;;;;11.65;10.55;;;26.50;99.90;;;;;;4837410;29;20054;-45
2023/08/17 08:19:36;;;;;;;12.10;10.85;;;26.60;99.90;;;;;;4839080;29;20081;-42
2023/08/17 08:22:04;;;;;;;10.88;9.77;;;26.70;99.90;;;;;;4834558;29;20485;-44
2023/08/17 08:24:34;;;;;;;10.50;9.50;;;26.80;99.90;;;;;;4838230;29;20468;-44
2023/08/17 08:27:05;;;;;;;10.70;8.98;;;26.90;99.90;;;;;;4838123;29;20048;-43
2023/08/17 08:29:33;;;;;;;10.95;9.95;;;26.90;99.90;;;;;;4833161;29;20486;-46
2023/08/17 08:32:02;;;;;;;11.05;9.85;;;27.00;99.90;;;;;;4833532;29;20571;-44
2023/08/17 08:34:30;;;;;;;12.15;10.00;;;27.10;99.90;;;;;;4838832;29;20050;-49
2023/08/17 08:36:57;;;;;;;12.07;10.80;;;27.20;99.90;;;;;;4837739;29;20137;-45
2023/08/17 08:39:28;;;;;;;11.60;10.60;;;27.40;99.90;;;;;;4838543;29;20116;-47
2023/08/17 08:41:56;;;;;;;11.75;10.68;;;27.40;99.90;;;;;;4836117;29;20120;-49
2023/08/17 08:44:23;;;;;;;11.73;10.63;;;27.40;99.90;;;;;;4835174;29;20057;-47
2023/08/17 08:46:55;;;;;;;11.80;10.70;;;27.40;99.90;;;;;;4836747;29;20057;-47
2023/08/17 08:49:24;;;;;;;11.88;10.68;;;27.50;99.90;;;;;;4836902;29;20091;-43
2023/08/17 08:51:52;;;;;;;11.60;10.13;;;27.60;99.90;;;;;;4837483;29;20058;-45
2023/08/17 08:54:26;;;;;;;11.80;10.70;;;27.70;99.90;;;;;;4838097;29;20057;-46
2023/08/17 08:57:03;;;;;;;12.25;11.05;;;27.80;99.90;;;;;;4836969;29;20077;-47
2023/08/17 08:59:31;;;;;;;12.48;11.27;;;27.90;99.90;;;;;;4839074;29;20061;-45
2023/08/17 09:01:59;;;;;;;11.40;10.30;;;28.00;99.90;;;;;;4838037;29;20396;-44
2023/08/17 09:04:28;;;;;;;12.52;11.23;;;28.10;99.90;;;;;;4834843;29;20140;-42
2023/08/17 09:06:56;;;;;;;11.60;10.45;;;28.20;99.90;;;;;;4831947;29;20066;-44
2023/08/17 09:09:23;;;;;;;12.85;11.55;;;28.30;99.90;;;;;;4836332;29;20457;-42
2023/08/17 09:11:56;;;;;;;12.75;11.55;;;28.40;99.90;;;;;;4833600;29;20045;-44
2023/08/17 09:14:24;;;;;;;14.27;11.50;;;28.30;99.90;;;;;;4837211;29;20420;-47
2023/08/17 09:16:51;;;;;;;12.40;11.15;;;28.40;99.90;;;;;;4833384;29;20146;-44
2023/08/17 09:19:20;;;;;;;12.55;11.40;;;28.50;99.90;;;;;;4829394;29;20051;-50
2023/08/17 09:21:47;;;;;;;12.70;11.40;;;28.60;99.90;;;;;;4834284;29;20053;-43
2023/08/17 09:24:17;;;;;;;13.02;11.82;;;28.70;99.90;;;;;;4836857;29;20049;-44
2023/08/17 09:26:45;;;;;;;12.25;10.95;;;28.80;99.90;;;;;;4836809;29;20046;-47
2023/08/17 09:29:20;;;;;;;12.45;11.23;;;28.90;99.90;;;;;;4833751;29;20461;-49
2023/08/17 09:31:47;;;;;;;12.32;11.18;;;29.10;99.90;;;;;;4836902;29;20160;-47
2023/08/17 09:34:18;;;;;;;12.00;10.85;;;29.10;99.90;;;;;;4836924;29;20088;-46
2023/08/17 09:36:47;;;;;;;11.70;10.60;;;29.20;99.90;;;;;;4835305;29;20392;-44
2023/08/17 09:39:18;;;;;;;13.23;11.07;;;29.40;99.90;;;;;;4835471;29;20053;-46
2023/08/17 09:41:45;;;;;;;12.15;10.95;;;29.40;99.90;;;;;;4832885;29;20053;-46
2023/08/17 09:44:13;;;;;;;11.43;10.23;;;29.60;99.90;;;;;;4837793;29;20052;-44
2023/08/17 09:46:43;;;;;;;13.50;12.20;;;29.70;99.90;;;;;;4836057;29;20106;-43
2023/08/17 09:49:11;;;;;;;12.57;11.48;;;29.90;99.90;;;;;;4836501;29;20038;-43
2023/08/17 09:51:38;;;;;;;12.52;11.23;;;30.00;99.90;;;;;;4836415;29;20056;-45
2023/08/17 09:54:31;;;;;;;12.93;11.70;;;30.30;99.90;;;;;;4831519;29;20441;-45
2023/08/17 09:56:58;;;;;;;12.15;11.02;;;30.40;99.90;;;;;;4834747;29;20173;-43
2023/08/17 09:59:26;;;;;;;12.73;11.52;;;30.40;99.90;;;;;;4834757;29;20430;-44
2023/08/17 10:01:54;;;;;;;13.65;11.60;;;30.40;99.90;;;;;;4836577;29;20153;-46
2023/08/17 10:04:24;;;;;;;12.93;11.82;;;30.50;99.90;;;;;;4833538;29;20416;-46
2023/08/17 10:07:01;;;;;;;13.48;12.02;;;30.50;99.90;;;;;;4833811;29;20466;-43
2023/08/17 10:09:42;;;;;;;12.85;11.52;;;30.70;99.90;;;;;;4834387;29;20084;-43
2023/08/17 10:12:15;;;;;;;13.15;12.00;;;30.80;99.90;;;;;;4834987;29;20449;-45
2023/08/17 10:14:54;;;;;;;12.43;11.20;;;30.70;99.90;;;;;;4834712;29;20140;-43
2023/08/17 10:17:27;;;;;;;13.98;11.07;;;30.70;99.90;;;;;;4835607;29;20066;-46
2023/08/17 10:19:58;;;;;;;13.23;11.90;;;30.90;99.90;;;;;;4837019;29;20070;-46
2023/08/17 10:22:42;;;;;;;12.48;11.02;;;31.20;99.90;;;;;;4836706;29;20050;-47
2023/08/17 10:25:13;;;;;;;12.65;11.45;;;31.40;99.90;;;;;;4834517;29;20074;-45
2023/08/17 10:27:45;;;;;;;13.43;11.00;;;31.60;99.90;;;;;;4835220;29;20054;-46
2023/08/17 10:30:12;;;;;;;12.25;11.15;;;31.70;99.90;;;;;;4836700;29;20053;-47
2023/08/17 10:32:44;;;;;;;12.73;11.02;;;31.70;99.90;;;;;;4835974;29;20049;-45
2023/08/17 10:35:14;;;;;;;11.10;10.15;;;31.90;99.90;;;;;;4835974;29;20045;-46
2023/08/17 10:37:41;;;;;;;13.05;10.75;;;32.20;99.90;;;;;;4836175;29;20461;-43
2023/08/17 10:40:10;;;;;;;12.55;11.35;;;32.20;99.90;;;;;;4835341;29;20073;-46
2023/08/17 10:42:41;;;;;;;14.73;11.32;;;32.30;99.90;;;;;;4836251;29;20061;-46
2023/08/17 10:45:29;;;;;;;13.45;11.90;;;32.30;99.90;;;;;;4837213;24;20054;-40
2023/08/17 10:48:07;;;;;;;11.75;10.52;;;32.30;99.90;;;;;;4818166;29;20072;-38
2023/08/17 10:50:36;;;;;;;12.18;11.07;;;32.70;99.90;;;;;;4813555;29;20589;-41
2023/08/17 10:53:12;;;;;;;12.35;11.15;;;32.80;99.90;;;;;;4828016;29;20050;-42
2023/08/17 10:55:41;;;;;;;12.00;10.80;;;33.00;99.90;;;;;;4828544;29;20282;-42
2023/08/17 10:58:08;;;;;;;11.23;10.23;;;33.30;99.90;;;;;;4830192;29;20050;-44
2023/08/17 11:00:42;;;;;;;12.18;11.07;;;33.50;99.90;;;;;;4822560;29;20090;-43
2023/08/17 11:03:17;;;;;;;12.40;11.13;;;33.30;99.90;;;;;;4825815;29;20504;-44
2023/08/17 11:05:53;;;;;;;11.98;10.90;;;33.40;99.90;;;;;;4823915;29;20576;-42
2023/08/17 11:08:33;;;;;;;11.88;10.70;;;33.60;99.90;;;;;;4827713;29;20046;-43
2023/08/17 11:11:06;;;;;;;12.20;11.10;;;34.00;99.90;;;;;;4822081;29;20107;-43
2023/08/17 11:13:42;;;;;;;12.52;11.32;;;34.30;99.90;;;;;;4803552;29;20054;-43
2023/08/17 11:16:12;;;;;;;12.25;11.00;;;34.50;99.90;;;;;;4822811;29;20483;-42
2023/08/17 11:18:44;;;;;;;11.45;10.32;;;34.50;99.90;;;;;;4820418;29;20087;-39
2023/08/17 11:21:12;;;;;;;11.55;10.55;;;34.90;99.90;;;;;;4801229;29;20095;-42
2023/08/17 11:23:46;;;;;;;11.32;10.23;;;35.20;99.90;;;;;;4818461;29;20050;-43
2023/08/17 11:26:18;;;;;;;10.77;9.77;;;35.60;99.90;;;;;;4818605;29;20046;-45
2023/08/17 11:28:46;;;;;;;11.38;10.40;;;35.90;99.90;;;;;;4831142;29;20157;-40
2023/08/17 11:31:15;;;;;;;12.57;11.40;;;36.20;99.90;;;;;;4800030;29;20038;-42
2023/08/17 11:33:44;;;;;;;11.52;10.52;;;36.50;99.90;;;;;;4829169;29;20065;-45
2023/08/17 11:36:12;;;;;;;14.25;10.32;;;36.80;99.90;;;;;;4827908;29;20126;-41
2023/08/17 11:38:41;;;;;;;11.93;10.93;;;37.10;99.90;;;;;;4826351;29;20326;-44
2023/08/17 11:41:09;;;;;;;11.73;10.73;;;37.30;99.80;;;;;;4821869;29;20125;-44
2023/08/17 11:43:44;;;;;;;11.02;10.13;;;37.30;98.70;;;;;;4825702;29;20646;-40
2023/08/17 11:46:12;;;;;;;11.48;10.35;;;37.40;97.80;;;;;;4820630;29;20161;-42
2023/08/17 11:48:40;;;;;;;11.43;10.30;;;37.20;97.40;;;;;;4828089;29;20573;-41
2023/08/17 11:51:07;;;;;;;11.88;10.82;;;36.80;96.70;;;;;;4828132;29;20073;-43
2023/08/17 11:53:36;;;;;;;11.75;10.73;;;36.60;96.90;;;;;;4829002;29;20058;-41
2023/08/17 11:56:04;;;;;;;12.02;11.02;;;36.50;97.10;;;;;;4825386;29;20136;-44
2023/08/17 11:58:40;;;;;;;11.23;10.30;;;36.50;96.70;;;;;;4828908;29;20170;-43
2023/08/17 12:01:08;;;;;;;;;;;36.90;95.80;;;;;;4826305;29;20050;-42
2023/08/17 12:03:36;;;;;;;11.13;10.23;;;37.10;94.60;;;;;;4823363;29;20004;-45
2023/08/17 12:06:04;;;;;;;11.07;9.88;;;37.00;94.40;;;;;;4826245;29;20708;-43
2023/08/17 12:08:33;;;;;;;12.15;11.15;;;37.60;94.50;;;;;;4827434;29;20053;-41
2023/08/17 12:11:02;;;;;;;10.68;9.85;;;37.80;93.40;;;;;;4827791;29;20555;-44
2023/08/17 12:13:34;;;;;;;12.40;11.18;;;38.20;92.50;;;;;;4820376;29;20154;-44
2023/08/17 12:16:03;;;;;;;11.90;10.82;;;38.40;92.20;;;;;;4820346;29;20054;-44
2023/08/17 12:18:34;;;;;;;11.18;10.23;;;38.10;91.90;;;;;;4817284;29;20116;-45
2023/08/17 12:21:03;;;;;;;;;;;37.60;92.10;;;;;;4820433;29;20058;-43
2023/08/17 12:23:32;;;;;;;11.20;10.30;;;36.70;92.90;;;;;;4820300;29;19989;-42
2023/08/17 12:26:00;;;;;;;11.65;10.63;;;36.40;93.20;;;;;;4822246;29;20058;-42
2023/08/17 12:28:27;;;;;;;11.80;10.80;;;36.80;93.30;;;;;;4822781;29;20051;-42
2023/08/17 12:31:02;;;;;;;10.88;9.98;;;37.50;92.20;;;;;;4825569;29;20059;-43
2023/08/17 12:33:29;;;;;;;10.90;10.00;;;38.20;91.20;;;;;;4820085;29;20058;-42
2023/08/17 12:35:57;;;;;;;11.18;10.05;;;38.70;90.20;;;;;;4819261;29;20061;-43
2023/08/17 12:38:25;;;;;;;12.02;10.93;;;39.30;88.30;;;;;;4820955;29;20062;-42
2023/08/17 12:40:53;;;;;;;11.35;9.60;;;39.40;87.20;;;;;;4819475;29;20056;-42
2023/08/17 12:43:20;;;;;;;11.00;10.00;;;39.90;85.00;;;;;;4820335;29;20256;-43